createdAt,value
2016-06-25T00:00:22.161Z,27.52
2016-06-25T00:01:21.568Z,27.51
2016-06-25T00:02:22.179Z,27.49
2016-06-25T00:03:22.175Z,27.55
2016-06-25T00:04:22.796Z,27.53
2016-06-25T00:05:22.213Z,27.57
2016-06-25T00:06:21.639Z,27.48
2016-06-25T00:07:22.244Z,27.48
2016-06-25T00:08:22.247Z,27.55
2016-06-25T00:09:21.655Z,27.49
2016-06-25T00:10:22.274Z,27.48
2016-06-25T00:11:22.869Z,27.52
2016-06-25T00:12:22.299Z,27.49
2016-06-25T00:13:22.296Z,27.57
2016-06-25T00:14:22.894Z,27.52
2016-06-25T00:15:21.741Z,27.51
2016-06-25T00:16:22.323Z,27.59
2016-06-25T00:17:23.003Z,27.51
2016-06-25T00:18:22.955Z,27.52
2016-06-25T00:19:23.009Z,27.51
2016-06-25T00:20:21.783Z,27.57
2016-06-25T00:21:21.789Z,27.51
2016-06-25T00:22:21.822Z,27.48
2016-06-25T00:23:22.410Z,27.52
2016-06-25T00:24:22.419Z,27.48
2016-06-25T00:25:22.443Z,27.51
2016-06-25T00:26:23.044Z,27.46
2016-06-25T00:27:22.489Z,27.51
2016-06-25T00:28:22.472Z,27.55
2016-06-25T00:29:21.889Z,27.42
2016-06-25T00:30:21.896Z,27.46
2016-06-25T00:31:23.122Z,27.48
2016-06-25T00:32:21.933Z,27.48
2016-06-25T00:33:23.171Z,27.52
2016-06-25T00:34:22.559Z,27.46
2016-06-25T00:35:23.150Z,27.49
2016-06-25T00:36:22.560Z,27.46
2016-06-25T00:37:21.979Z,27.52
2016-06-25T00:38:23.179Z,27.42
2016-06-25T00:39:23.186Z,27.45
2016-06-25T00:40:22.633Z,27.46
2016-06-25T00:41:22.612Z,27.52
2016-06-25T00:42:23.230Z,27.52
2016-06-25T00:43:23.238Z,27.43
2016-06-25T00:44:22.654Z,27.45
2016-06-25T00:45:22.065Z,27.52
2016-06-25T00:46:23.272Z,27.42
2016-06-25T00:47:23.283Z,27.45
2016-06-25T00:48:23.293Z,27.43
2016-06-25T00:49:22.707Z,27.46
2016-06-25T00:50:23.312Z,27.46
2016-06-25T00:51:23.317Z,27.37
2016-06-25T00:52:23.337Z,27.43
2016-06-25T00:53:22.165Z,27.38
2016-06-25T00:54:22.779Z,27.41
2016-06-25T00:55:23.373Z,27.55
2016-06-25T00:56:23.390Z,27.37
2016-06-25T00:57:22.210Z,27.48
2016-06-25T00:58:22.202Z,27.43
2016-06-25T00:59:22.815Z,27.46
2016-06-25T01:00:22.845Z,27.45
2016-06-25T01:01:22.838Z,27.51
2016-06-25T01:02:22.257Z,27.42
2016-06-25T01:03:22.259Z,27.38
2016-06-25T01:04:22.275Z,27.42
2016-06-25T01:05:22.892Z,27.43
2016-06-25T01:06:22.901Z,27.42
2016-06-25T01:07:22.907Z,27.42
2016-06-25T01:08:22.930Z,27.42
2016-06-25T01:09:22.335Z,27.42
2016-06-25T01:10:23.544Z,27.42
2016-06-25T01:11:23.564Z,27.41
2016-06-25T01:12:22.369Z,27.43
2016-06-25T01:13:23.575Z,27.41
2016-06-25T01:14:23.588Z,27.38
2016-06-25T01:15:22.393Z,27.42
2016-06-25T01:16:23.074Z,27.45
2016-06-25T01:17:23.023Z,27.42
2016-06-25T01:18:23.103Z,27.42
2016-06-25T01:19:23.039Z,27.38
2016-06-25T01:20:23.682Z,27.42
2016-06-25T01:21:22.468Z,27.41
2016-06-25T01:22:23.069Z,27.38
2016-06-25T01:23:23.735Z,27.43
2016-06-25T01:24:22.499Z,27.38
2016-06-25T01:25:23.108Z,27.45
2016-06-25T01:26:23.123Z,27.42
2016-06-25T01:27:23.742Z,27.42
2016-06-25T01:28:22.568Z,27.43
2016-06-25T01:29:23.753Z,27.41
2016-06-25T01:30:23.223Z,27.42
2016-06-25T01:31:22.592Z,27.41
2016-06-25T01:32:23.241Z,27.42
2016-06-25T01:33:23.811Z,27.31
2016-06-25T01:34:23.211Z,27.37
2016-06-25T01:35:23.813Z,27.43
2016-06-25T01:36:23.855Z,27.36
2016-06-25T01:37:23.855Z,27.38
2016-06-25T01:38:23.275Z,27.38
2016-06-25T01:39:23.277Z,27.36
2016-06-25T01:40:23.303Z,27.34
2016-06-25T01:41:23.299Z,27.37
2016-06-25T01:42:23.912Z,27.38
2016-06-25T01:43:22.739Z,27.41
2016-06-25T01:44:23.936Z,27.38
2016-06-25T01:45:22.733Z,27.34
2016-06-25T01:46:23.346Z,27.43
2016-06-25T01:47:23.351Z,27.41
2016-06-25T01:48:22.775Z,27.27
2016-06-25T01:49:22.799Z,27.34
2016-06-25T01:50:23.993Z,27.33
2016-06-25T01:51:23.405Z,27.45
2016-06-25T01:52:23.425Z,27.36
2016-06-25T01:53:22.822Z,27.33
2016-06-25T01:54:23.437Z,27.36
2016-06-25T01:55:24.053Z,27.33
2016-06-25T01:56:22.848Z,27.41
2016-06-25T01:57:24.080Z,27.33
2016-06-25T01:58:23.500Z,27.33
2016-06-25T01:59:23.501Z,27.37
2016-06-25T02:00:23.513Z,27.36
2016-06-25T02:01:24.123Z,27.41
2016-06-25T02:02:22.942Z,27.33
2016-06-25T02:03:23.579Z,27.34
2016-06-25T02:04:23.585Z,27.33
2016-06-25T02:05:23.569Z,27.3
2016-06-25T02:06:23.565Z,27.31
2016-06-25T02:07:24.225Z,27.33
2016-06-25T02:08:24.177Z,27.31
2016-06-25T02:09:24.202Z,27.37
2016-06-25T02:10:23.023Z,27.37
2016-06-25T02:11:23.622Z,27.33
2016-06-25T02:12:24.237Z,27.31
2016-06-25T02:13:23.053Z,27.38
2016-06-25T02:14:24.267Z,27.36
2016-06-25T02:15:23.094Z,27.36
2016-06-25T02:16:24.283Z,27.33
2016-06-25T02:17:23.696Z,27.37
2016-06-25T02:18:23.107Z,27.34
2016-06-25T02:19:24.332Z,27.37
2016-06-25T02:20:23.733Z,27.33
2016-06-25T02:21:23.742Z,27.3
2016-06-25T02:22:23.757Z,27.37
2016-06-25T02:23:24.377Z,27.31
2016-06-25T02:24:23.777Z,27.3
2016-06-25T02:25:23.800Z,27.38
2016-06-25T02:26:23.797Z,27.27
2016-06-25T02:27:24.401Z,27.37
2016-06-25T02:28:23.847Z,27.34
2016-06-25T02:29:24.446Z,27.3
2016-06-25T02:30:23.865Z,27.36
2016-06-25T02:31:24.457Z,27.37
2016-06-25T02:32:24.461Z,27.31
2016-06-25T02:33:23.319Z,27.28
2016-06-25T02:34:24.506Z,27.34
2016-06-25T02:35:24.496Z,27.37
2016-06-25T02:36:23.909Z,27.33
2016-06-25T02:37:23.925Z,27.33
2016-06-25T02:38:23.360Z,27.28
2016-06-25T02:39:23.945Z,27.3
2016-06-25T02:40:23.352Z,27.31
2016-06-25T02:41:24.573Z,27.3
2016-06-25T02:42:24.575Z,27.27
2016-06-25T02:43:23.397Z,27.27
2016-06-25T02:44:24.603Z,27.28
2016-06-25T02:45:23.419Z,27.36
2016-06-25T02:46:24.045Z,27.3
2016-06-25T02:47:24.024Z,27.36
2016-06-25T02:48:23.450Z,27.27
2016-06-25T02:49:24.070Z,27.28
2016-06-25T02:50:24.063Z,27.33
2016-06-25T02:51:23.493Z,27.27
2016-06-25T02:52:24.684Z,27.26
2016-06-25T02:53:24.111Z,27.24
2016-06-25T02:54:24.743Z,27.27
2016-06-25T02:55:24.729Z,27.36
2016-06-25T02:56:24.127Z,27.31
2016-06-25T02:57:24.741Z,27.24
2016-06-25T02:58:24.746Z,27.26
2016-06-25T02:59:24.766Z,27.3
2016-06-25T03:00:24.166Z,27.27
2016-06-25T03:01:24.782Z,27.23
2016-06-25T03:02:24.209Z,27.27
2016-06-25T03:03:24.221Z,27.24
2016-06-25T03:04:23.612Z,27.23
2016-06-25T03:05:24.855Z,27.31
2016-06-25T03:06:24.248Z,27.27
2016-06-25T03:07:23.668Z,27.26
2016-06-25T03:08:24.871Z,27.24
2016-06-25T03:09:24.283Z,27.24
2016-06-25T03:10:24.289Z,27.3
2016-06-25T03:11:24.902Z,27.23
2016-06-25T03:12:24.314Z,27.28
2016-06-25T03:13:23.726Z,27.24
2016-06-25T03:14:24.930Z,27.31
2016-06-25T03:15:25.214Z,27.28
2016-06-25T03:16:24.958Z,27.27
2016-06-25T03:17:24.477Z,27.27
2016-06-25T03:18:25.087Z,27.3
2016-06-25T03:19:24.569Z,27.3
2016-06-25T03:20:25.046Z,27.3
2016-06-25T03:21:24.550Z,27.34
2016-06-25T03:22:25.132Z,27.16
2016-06-25T03:23:24.426Z,27.28
2016-06-25T03:24:24.449Z,27.24
2016-06-25T03:25:25.047Z,27.27
2016-06-25T03:26:25.060Z,27.27
2016-06-25T03:27:23.880Z,27.3
2016-06-25T03:28:24.479Z,27.28
2016-06-25T03:29:24.498Z,27.33
2016-06-25T03:30:24.525Z,27.26
2016-06-25T03:31:24.524Z,27.33
2016-06-25T03:32:24.527Z,27.26
2016-06-25T03:33:23.937Z,27.31
2016-06-25T03:34:24.554Z,27.24
2016-06-25T03:35:25.165Z,27.24
2016-06-25T03:36:23.979Z,27.3
2016-06-25T03:37:24.005Z,27.21
2016-06-25T03:38:24.599Z,27.24
2016-06-25T03:39:24.607Z,27.31
2016-06-25T03:40:24.622Z,27.26
2016-06-25T03:41:25.228Z,27.21
2016-06-25T03:42:24.047Z,27.21
2016-06-25T03:43:25.280Z,27.21
2016-06-25T03:44:24.671Z,27.31
2016-06-25T03:45:24.670Z,27.24
2016-06-25T03:46:24.703Z,27.28
2016-06-25T03:47:24.714Z,27.27
2016-06-25T03:48:24.705Z,27.33
2016-06-25T03:49:25.347Z,27.3
2016-06-25T03:50:24.727Z,27.31
2016-06-25T03:51:24.142Z,27.26
2016-06-25T03:52:25.352Z,27.28
2016-06-25T03:53:24.173Z,27.3
2016-06-25T03:54:24.808Z,27.28
2016-06-25T03:55:25.385Z,27.19
2016-06-25T03:56:24.793Z,27.23
2016-06-25T03:57:24.219Z,27.31
2016-06-25T03:58:24.821Z,27.3
2016-06-25T03:59:24.835Z,27.24
2016-06-25T04:00:24.862Z,27.27
2016-06-25T04:01:25.450Z,27.27
2016-06-25T04:02:25.460Z,27.26
2016-06-25T04:03:24.879Z,27.3
2016-06-25T04:04:24.891Z,27.31
2016-06-25T04:05:24.292Z,27.28
2016-06-25T04:06:25.515Z,27.24
2016-06-25T04:07:24.926Z,27.28
2016-06-25T04:08:25.519Z,27.31
2016-06-25T04:09:24.940Z,27.38
2016-06-25T04:10:24.962Z,27.28
2016-06-25T04:11:25.552Z,27.31
2016-06-25T04:12:25.569Z,27.3
2016-06-25T04:13:25.593Z,27.23
2016-06-25T04:14:25.003Z,27.28
2016-06-25T04:15:24.407Z,27.19
2016-06-25T04:16:24.423Z,27.31
2016-06-25T04:17:25.030Z,27.24
2016-06-25T04:18:24.500Z,27.3
2016-06-25T04:19:24.468Z,27.33
2016-06-25T04:20:24.473Z,27.23
2016-06-25T04:21:25.667Z,27.31
2016-06-25T04:22:25.093Z,27.26
2016-06-25T04:23:25.095Z,27.27
2016-06-25T04:24:25.125Z,27.27
2016-06-25T04:25:25.712Z,27.27
2016-06-25T04:26:24.542Z,27.3
2016-06-25T04:27:25.157Z,27.34
2016-06-25T04:28:24.563Z,27.38
2016-06-25T04:29:25.759Z,27.41
2016-06-25T04:30:25.779Z,27.3
2016-06-25T04:31:25.184Z,27.37
2016-06-25T04:32:25.231Z,27.31
2016-06-25T04:33:25.233Z,27.28
2016-06-25T04:34:25.209Z,27.36
2016-06-25T04:35:25.834Z,27.38
2016-06-25T04:36:25.249Z,27.41
2016-06-25T04:37:25.282Z,27.37
2016-06-25T04:38:25.266Z,27.43
2016-06-25T04:39:25.270Z,27.3
2016-06-25T04:40:25.308Z,27.38
2016-06-25T04:41:25.327Z,27.34
2016-06-25T04:42:25.310Z,27.33
2016-06-25T04:43:25.930Z,27.33
2016-06-25T04:44:25.930Z,27.42
2016-06-25T04:45:25.347Z,27.34
2016-06-25T04:46:25.355Z,27.38
2016-06-25T04:47:25.372Z,27.34
2016-06-25T04:48:25.379Z,27.38
2016-06-25T04:49:25.449Z,27.36
2016-06-25T04:50:25.987Z,27.37
2016-06-25T04:51:25.399Z,27.41
2016-06-25T04:52:24.825Z,27.41
2016-06-25T04:53:25.441Z,27.36
2016-06-25T04:54:25.442Z,27.38
2016-06-25T04:55:26.070Z,27.41
2016-06-25T04:56:25.481Z,27.41
2016-06-25T04:57:25.465Z,27.37
2016-06-25T04:58:25.488Z,27.41
2016-06-25T04:59:26.093Z,27.43
2016-06-25T05:00:26.100Z,27.42
2016-06-25T05:01:24.926Z,27.37
2016-06-25T05:02:26.130Z,27.43
2016-06-25T05:03:26.151Z,27.41
2016-06-25T05:04:26.155Z,27.37
2016-06-25T05:05:26.161Z,27.37
2016-06-25T05:06:26.213Z,27.41
2016-06-25T05:07:24.993Z,27.45
2016-06-25T05:08:25.598Z,27.38
2016-06-25T05:09:25.610Z,27.45
2016-06-25T05:10:25.623Z,27.46
2016-06-25T05:11:25.619Z,27.42
2016-06-25T05:12:26.253Z,27.43
2016-06-25T05:13:26.263Z,27.49
2016-06-25T05:14:25.662Z,27.41
2016-06-25T05:15:26.313Z,27.48
2016-06-25T05:16:25.675Z,27.51
2016-06-25T05:17:25.103Z,27.42
2016-06-25T05:18:26.327Z,27.42
2016-06-25T05:19:25.722Z,27.49
2016-06-25T05:20:26.329Z,27.43
2016-06-25T05:21:26.334Z,27.53
2016-06-25T05:22:26.365Z,27.43
2016-06-25T05:23:25.172Z,27.42
2016-06-25T05:24:26.385Z,27.49
2016-06-25T05:25:25.791Z,27.41
2016-06-25T05:26:26.404Z,27.49
2016-06-25T05:27:25.215Z,27.45
2016-06-25T05:28:26.418Z,27.46
2016-06-25T05:29:25.844Z,27.51
2016-06-25T05:30:26.468Z,27.48
2016-06-25T05:31:26.475Z,27.53
2016-06-25T05:32:25.859Z,27.53
2016-06-25T05:33:25.882Z,27.55
2016-06-25T05:34:25.912Z,27.51
2016-06-25T05:35:25.914Z,27.49
2016-06-25T05:36:26.509Z,27.51
2016-06-25T05:37:25.925Z,27.52
2016-06-25T05:38:25.938Z,27.61
2016-06-25T05:39:25.362Z,27.53
2016-06-25T05:40:25.969Z,27.51
2016-06-25T05:41:25.979Z,27.52
2016-06-25T05:42:25.990Z,27.42
2016-06-25T05:43:26.589Z,27.52
2016-06-25T05:44:26.598Z,27.48
2016-06-25T05:45:26.011Z,27.49
2016-06-25T05:46:25.422Z,27.49
2016-06-25T05:47:26.652Z,27.57
2016-06-25T05:48:26.053Z,27.55
2016-06-25T05:49:26.061Z,27.59
2016-06-25T05:50:26.658Z,27.48
2016-06-25T05:51:26.112Z,27.57
2016-06-25T05:52:26.701Z,27.64
2016-06-25T05:53:26.099Z,27.52
2016-06-25T05:54:25.540Z,27.51
2016-06-25T05:55:26.727Z,27.49
2016-06-25T05:56:26.749Z,27.55
2016-06-25T05:57:26.735Z,27.55
2016-06-25T05:58:26.753Z,27.53
2016-06-25T05:59:26.763Z,27.55
2016-06-25T06:00:26.202Z,27.53
2016-06-25T06:01:26.198Z,27.62
2016-06-25T06:02:26.792Z,27.62
2016-06-25T06:03:26.227Z,27.53
2016-06-25T06:04:26.223Z,27.52
2016-06-25T06:05:25.646Z,27.49
2016-06-25T06:06:25.652Z,27.61
2016-06-25T06:07:26.879Z,27.52
2016-06-25T06:08:26.867Z,27.49
2016-06-25T06:09:26.289Z,27.55
2016-06-25T06:10:26.887Z,27.59
2016-06-25T06:11:26.314Z,27.57
2016-06-25T06:12:26.938Z,27.52
2016-06-25T06:13:25.729Z,27.57
2016-06-25T06:14:26.959Z,27.55
2016-06-25T06:15:26.949Z,27.48
2016-06-25T06:16:26.361Z,27.61
2016-06-25T06:17:26.976Z,27.62
2016-06-25T06:18:25.787Z,27.62
2016-06-25T06:19:26.996Z,27.59
2016-06-25T06:20:25.793Z,27.66
2016-06-25T06:21:26.426Z,27.57
2016-06-25T06:22:25.840Z,27.57
2016-06-25T06:23:25.849Z,27.62
2016-06-25T06:24:27.050Z,27.61
2016-06-25T06:25:27.109Z,27.59
2016-06-25T06:26:26.488Z,27.62
2016-06-25T06:27:27.086Z,27.64
2016-06-25T06:28:26.502Z,27.61
2016-06-25T06:29:26.525Z,27.66
2016-06-25T06:30:26.525Z,27.59
2016-06-25T06:31:26.533Z,27.65
2016-06-25T06:32:26.544Z,27.62
2016-06-25T06:33:26.563Z,27.65
2016-06-25T06:34:27.167Z,27.59
2016-06-25T06:35:25.977Z,27.69
2016-06-25T06:36:26.582Z,27.64
2016-06-25T06:37:25.986Z,27.65
2016-06-25T06:38:26.017Z,27.75
2016-06-25T06:39:26.611Z,27.65
2016-06-25T06:40:26.027Z,27.65
2016-06-25T06:41:26.033Z,27.62
2016-06-25T06:42:26.043Z,27.65
2016-06-25T06:43:27.248Z,27.71
2016-06-25T06:44:26.066Z,27.72
2016-06-25T06:45:27.293Z,27.71
2016-06-25T06:46:26.708Z,27.72
2016-06-25T06:47:26.101Z,27.68
2016-06-25T06:48:27.323Z,27.71
2016-06-25T06:49:27.339Z,27.74
2016-06-25T06:50:26.743Z,27.68
2016-06-25T06:51:26.756Z,27.66
2016-06-25T06:52:26.165Z,27.74
2016-06-25T06:53:27.367Z,27.76
2016-06-25T06:54:26.191Z,27.79
2016-06-25T06:55:26.810Z,27.68
2016-06-25T06:56:26.214Z,27.61
2016-06-25T06:57:26.227Z,27.65
2016-06-25T06:58:26.225Z,27.76
2016-06-25T06:59:26.844Z,27.66
2016-06-25T07:00:26.890Z,27.72
2016-06-25T07:01:26.274Z,27.76
2016-06-25T07:02:26.277Z,27.64
2016-06-25T07:03:26.891Z,27.66
2016-06-25T07:04:27.493Z,27.72
2016-06-25T07:05:26.916Z,27.69
2016-06-25T07:06:26.917Z,27.75
2016-06-25T07:07:27.539Z,27.69
2016-06-25T07:08:27.538Z,27.74
2016-06-25T07:09:27.544Z,27.76
2016-06-25T07:10:27.559Z,27.8
2016-06-25T07:11:26.379Z,27.75
2016-06-25T07:12:26.994Z,27.72
2016-06-25T07:13:27.594Z,27.83
2016-06-25T07:14:27.011Z,27.75
2016-06-25T07:15:27.018Z,27.76
2016-06-25T07:16:27.638Z,27.66
2016-06-25T07:17:27.640Z,27.84
2016-06-25T07:18:27.060Z,27.71
2016-06-25T07:19:26.471Z,27.8
2016-06-25T07:20:27.686Z,27.75
2016-06-25T07:21:27.133Z,27.69
2016-06-25T07:22:27.704Z,27.71
2016-06-25T07:23:27.130Z,27.68
2016-06-25T07:24:27.723Z,27.66
2016-06-25T07:25:26.539Z,27.8
2016-06-25T07:26:27.750Z,27.79
2016-06-25T07:27:27.173Z,27.68
2016-06-25T07:28:27.762Z,27.84
2016-06-25T07:29:27.176Z,27.72
2016-06-25T07:30:26.643Z,27.81
2016-06-25T07:31:27.794Z,27.68
2016-06-25T07:32:26.608Z,27.76
2016-06-25T07:33:27.221Z,27.76
2016-06-25T07:34:27.820Z,27.74
2016-06-25T07:35:27.274Z,27.86
2016-06-25T07:36:27.857Z,27.79
2016-06-25T07:37:27.867Z,27.8
2016-06-25T07:38:26.681Z,27.79
2016-06-25T07:39:27.939Z,27.76
2016-06-25T07:40:27.920Z,27.8
2016-06-25T07:41:27.909Z,27.81
2016-06-25T07:42:27.915Z,27.69
2016-06-25T07:43:26.740Z,27.81
2016-06-25T07:44:27.341Z,27.74
2016-06-25T07:45:26.766Z,27.8
2016-06-25T07:46:26.762Z,27.75
2016-06-25T07:47:27.403Z,27.75
2016-06-25T07:48:27.421Z,27.69
2016-06-25T07:49:27.395Z,27.79
2016-06-25T07:50:27.429Z,27.76
2016-06-25T07:51:28.026Z,27.75
2016-06-25T07:52:26.839Z,27.8
2016-06-25T07:53:27.453Z,27.81
2016-06-25T07:54:28.057Z,27.76
2016-06-25T07:55:28.112Z,27.79
2016-06-25T07:56:28.069Z,27.76
2016-06-25T07:57:28.090Z,27.81
2016-06-25T07:58:28.117Z,27.87
2016-06-25T07:59:28.111Z,27.81
2016-06-25T08:00:27.513Z,27.75
2016-06-25T08:01:26.926Z,27.81
2016-06-25T08:02:26.942Z,27.75
2016-06-25T08:03:27.548Z,27.74
2016-06-25T08:04:28.194Z,27.81
2016-06-25T08:05:27.573Z,27.89
2016-06-25T08:06:27.000Z,27.9
2016-06-25T08:07:26.994Z,27.81
2016-06-25T08:08:28.209Z,27.76
2016-06-25T08:09:27.618Z,27.8
2016-06-25T08:10:27.645Z,27.79
2016-06-25T08:11:27.639Z,27.83
2016-06-25T08:12:28.259Z,27.87
2016-06-25T08:13:28.268Z,27.83
2016-06-25T08:14:27.082Z,27.83
2016-06-25T08:15:28.305Z,27.79
2016-06-25T08:16:27.138Z,27.8
2016-06-25T08:17:27.731Z,27.81
2016-06-25T08:18:27.752Z,27.8
2016-06-25T08:19:28.339Z,27.79
2016-06-25T08:20:28.380Z,27.84
2016-06-25T08:21:27.745Z,27.81
2016-06-25T08:22:28.390Z,27.83
2016-06-25T08:23:28.378Z,27.83
2016-06-25T08:24:27.188Z,27.79
2016-06-25T08:25:28.463Z,27.9
2016-06-25T08:26:28.551Z,27.89
2016-06-25T08:27:27.829Z,27.96
2016-06-25T08:28:28.435Z,27.8
2016-06-25T08:29:27.848Z,27.93
2016-06-25T08:30:27.870Z,27.87
2016-06-25T08:31:27.890Z,27.91
2016-06-25T08:32:27.880Z,27.87
2016-06-25T08:33:27.889Z,27.91
2016-06-25T08:34:27.910Z,27.9
2016-06-25T08:35:28.535Z,27.87
2016-06-25T08:36:27.916Z,27.91
2016-06-25T08:37:27.935Z,27.94
2016-06-25T08:38:27.341Z,27.96
2016-06-25T08:39:27.350Z,27.94
2016-06-25T08:40:27.959Z,27.91
2016-06-25T08:41:27.392Z,27.99
2016-06-25T08:42:27.995Z,27.99
2016-06-25T08:43:28.603Z,27.96
2016-06-25T08:44:28.011Z,27.93
2016-06-25T08:45:28.025Z,27.99
2016-06-25T08:46:28.035Z,27.98
2016-06-25T08:47:28.042Z,27.96
2016-06-25T08:48:28.659Z,28.01
2016-06-25T08:49:28.080Z,28.03
2016-06-25T08:50:28.070Z,28.03
2016-06-25T08:51:28.691Z,27.99
2016-06-25T08:52:28.103Z,28.02
2016-06-25T08:53:28.122Z,28.03
2016-06-25T08:54:28.114Z,28.06
2016-06-25T08:55:28.739Z,28.06
2016-06-25T08:56:28.146Z,28.01
2016-06-25T08:57:27.555Z,28.03
2016-06-25T08:58:28.773Z,28.02
2016-06-25T08:59:28.195Z,28.11
2016-06-25T09:00:28.793Z,28.08
2016-06-25T09:01:28.206Z,28.06
2016-06-25T09:02:28.207Z,28.08
2016-06-25T09:03:27.629Z,28.06
2016-06-25T09:04:28.245Z,28.11
2016-06-25T09:05:28.252Z,28.17
2016-06-25T09:06:27.663Z,28.11
2016-06-25T09:07:28.266Z,28.06
2016-06-25T09:08:28.280Z,28.03
2016-06-25T09:09:28.289Z,28.06
2016-06-25T09:10:28.310Z,28.09
2016-06-25T09:11:28.912Z,28.18
2016-06-25T09:12:28.327Z,28.14
2016-06-25T09:13:28.929Z,28.16
2016-06-25T09:14:28.354Z,28.14
2016-06-25T09:15:28.367Z,28.2
2016-06-25T09:16:28.375Z,28.17
2016-06-25T09:17:29.027Z,28.18
2016-06-25T09:18:29.003Z,28.09
2016-06-25T09:19:28.999Z,28.06
2016-06-25T09:20:29.024Z,28.26
2016-06-25T09:21:28.442Z,28.12
2016-06-25T09:22:27.845Z,28.08
2016-06-25T09:23:28.464Z,28.2
2016-06-25T09:24:29.059Z,28.24
2016-06-25T09:25:27.883Z,28.23
2016-06-25T09:26:28.485Z,28.18
2016-06-25T09:27:27.898Z,28.16
2016-06-25T09:28:27.916Z,28.21
2016-06-25T09:29:28.515Z,28.21
2016-06-25T09:30:27.957Z,28.2
2016-06-25T09:31:29.144Z,28.21
2016-06-25T09:32:29.164Z,28.21
2016-06-25T09:33:29.187Z,28.16
2016-06-25T09:34:28.597Z,28.21
2016-06-25T09:35:28.606Z,28.26
2016-06-25T09:36:28.629Z,28.3
2016-06-25T09:37:28.039Z,28.33
2016-06-25T09:38:28.618Z,28.3
2016-06-25T09:39:28.642Z,28.28
2016-06-25T09:40:28.647Z,28.31
2016-06-25T09:41:29.265Z,28.26
2016-06-25T09:42:28.672Z,28.26
2016-06-25T09:43:29.272Z,28.28
2016-06-25T09:44:29.366Z,28.39
2016-06-25T09:45:28.703Z,28.35
2016-06-25T09:46:29.324Z,28.38
2016-06-25T09:47:28.738Z,28.38
2016-06-25T09:48:29.398Z,28.39
2016-06-25T09:49:28.757Z,28.38
2016-06-25T09:50:28.758Z,28.39
2016-06-25T09:51:29.368Z,28.36
2016-06-25T09:52:28.798Z,28.43
2016-06-25T09:53:28.199Z,28.39
2016-06-25T09:54:28.206Z,28.36
2016-06-25T09:55:28.835Z,28.41
2016-06-25T09:56:28.855Z,28.38
2016-06-25T09:57:28.851Z,28.46
2016-06-25T09:58:29.459Z,28.45
2016-06-25T09:59:28.862Z,28.49
2016-06-25T10:00:28.895Z,28.48
2016-06-25T10:01:28.941Z,28.45
2016-06-25T10:02:28.902Z,28.45
2016-06-25T10:03:28.313Z,28.51
2016-06-25T10:04:29.521Z,28.45
2016-06-25T10:05:28.931Z,28.43
2016-06-25T10:06:28.346Z,28.49
2016-06-25T10:07:28.947Z,28.54
2016-06-25T10:08:29.561Z,28.57
2016-06-25T10:09:28.384Z,28.61
2016-06-25T10:10:28.416Z,28.53
2016-06-25T10:11:28.999Z,28.55
2016-06-25T10:12:29.005Z,28.58
2016-06-25T10:13:29.031Z,28.54
2016-06-25T10:14:29.038Z,28.51
2016-06-25T10:15:29.642Z,28.6
2016-06-25T10:16:28.490Z,28.57
2016-06-25T10:17:29.066Z,28.58
2016-06-25T10:18:29.091Z,28.64
2016-06-25T10:19:29.087Z,28.64
2016-06-25T10:20:29.095Z,28.53
2016-06-25T10:21:29.107Z,28.6
2016-06-25T10:22:29.142Z,28.51
2016-06-25T10:23:28.542Z,28.61
2016-06-25T10:24:28.544Z,28.63
2016-06-25T10:25:29.170Z,28.54
2016-06-25T10:26:29.786Z,28.65
2016-06-25T10:27:29.182Z,28.68
2016-06-25T10:28:29.802Z,28.64
2016-06-25T10:29:29.407Z,28.72
2016-06-25T10:30:28.607Z,28.67
2016-06-25T10:31:29.228Z,28.68
2016-06-25T10:32:29.241Z,28.7
2016-06-25T10:33:28.667Z,28.67
2016-06-25T10:34:28.666Z,28.75
2016-06-25T10:35:29.865Z,28.64
2016-06-25T10:36:29.876Z,28.73
2016-06-25T10:37:29.307Z,28.73
2016-06-25T10:38:28.711Z,28.63
2016-06-25T10:39:28.726Z,28.73
2016-06-25T10:40:29.321Z,28.82
2016-06-25T10:41:28.743Z,28.78
2016-06-25T10:42:29.364Z,28.75
2016-06-25T10:43:29.983Z,28.72
2016-06-25T10:44:29.377Z,28.76
2016-06-25T10:45:29.375Z,28.76
2016-06-25T10:46:28.790Z,28.7
2016-06-25T10:47:29.411Z,28.82
2016-06-25T10:48:29.447Z,28.85
2016-06-25T10:49:28.849Z,28.8
2016-06-25T10:50:30.089Z,28.82
2016-06-25T10:51:30.056Z,28.86
2016-06-25T10:52:29.475Z,28.9
2016-06-25T10:53:28.914Z,28.85
2016-06-25T10:54:30.090Z,28.85
2016-06-25T10:55:30.098Z,28.85
2016-06-25T10:56:28.930Z,28.79
2016-06-25T10:57:30.134Z,28.9
2016-06-25T10:58:29.546Z,28.86
2016-06-25T10:59:29.575Z,28.83
2016-06-25T11:00:28.947Z,28.85
2016-06-25T11:01:30.165Z,28.85
2016-06-25T11:02:29.578Z,28.88
2016-06-25T11:03:30.194Z,28.82
2016-06-25T11:04:30.214Z,28.91
2016-06-25T11:05:30.226Z,28.95
2016-06-25T11:06:29.633Z,28.94
2016-06-25T11:07:29.625Z,28.95
2016-06-25T11:08:29.643Z,28.97
2016-06-25T11:09:29.661Z,28.95
2016-06-25T11:10:30.306Z,28.91
2016-06-25T11:11:29.689Z,28.94
2016-06-25T11:12:30.304Z,28.94
2016-06-25T11:13:29.723Z,28.97
2016-06-25T11:14:29.733Z,28.94
2016-06-25T11:15:29.747Z,28.95
2016-06-25T11:16:30.337Z,29.01
2016-06-25T11:17:30.366Z,28.92
2016-06-25T11:18:29.167Z,28.98
2016-06-25T11:19:30.468Z,29.03
2016-06-25T11:20:29.789Z,29.03
2016-06-25T11:21:29.230Z,29.1
2016-06-25T11:22:30.430Z,29.1
2016-06-25T11:23:29.842Z,29.11
2016-06-25T11:24:29.843Z,29.05
2016-06-25T11:25:29.854Z,29.11
2016-06-25T11:26:29.859Z,29.15
2016-06-25T11:27:29.871Z,29.05
2016-06-25T11:28:30.487Z,29.11
2016-06-25T11:29:29.905Z,29.1
2016-06-25T11:30:29.303Z,29.11
2016-06-25T11:31:29.923Z,29.13
2016-06-25T11:32:29.926Z,29.13
2016-06-25T11:33:30.558Z,29.18
2016-06-25T11:34:29.963Z,29.15
2016-06-25T11:35:29.998Z,29.2
2016-06-25T11:36:29.971Z,29.15
2016-06-25T11:37:30.598Z,29.23
2016-06-25T11:38:30.019Z,29.17
2016-06-25T11:39:30.010Z,29.18
2016-06-25T11:40:30.029Z,29.17
2016-06-25T11:41:30.630Z,29.17
2016-06-25T11:42:30.037Z,29.21
2016-06-25T11:43:30.048Z,29.17
2016-06-25T11:44:30.068Z,29.18
2016-06-25T11:45:30.085Z,29.15
2016-06-25T11:46:30.688Z,29.2
2016-06-25T11:47:30.722Z,29.24
2016-06-25T11:48:30.136Z,29.28
2016-06-25T11:49:30.127Z,29.28
2016-06-25T11:50:30.141Z,29.23
2016-06-25T11:51:29.552Z,29.33
2016-06-25T11:52:30.773Z,29.21
2016-06-25T11:53:29.582Z,29.36
2016-06-25T11:54:29.599Z,29.28
2016-06-25T11:55:29.603Z,29.26
2016-06-25T11:56:30.217Z,29.28
2016-06-25T11:57:30.220Z,29.3
2016-06-25T11:58:30.243Z,29.32
2016-06-25T11:59:30.256Z,29.39
2016-06-25T12:00:30.259Z,29.38
2016-06-25T12:01:30.874Z,29.35
2016-06-25T12:02:30.891Z,29.47
2016-06-25T12:03:30.298Z,29.48
2016-06-25T12:04:30.313Z,29.43
2016-06-25T12:05:30.321Z,29.42
2016-06-25T12:06:29.730Z,29.36
2016-06-25T12:07:30.935Z,29.38
2016-06-25T12:08:30.367Z,29.45
2016-06-25T12:09:30.374Z,29.38
2016-06-25T12:10:30.978Z,29.39
2016-06-25T12:11:29.792Z,29.4
2016-06-25T12:12:30.395Z,29.5
2016-06-25T12:13:30.405Z,29.5
2016-06-25T12:14:30.438Z,29.42
2016-06-25T12:15:30.473Z,29.47
2016-06-25T12:16:30.478Z,29.5
2016-06-25T12:17:31.065Z,29.51
2016-06-25T12:18:29.887Z,29.47
2016-06-25T12:19:29.930Z,29.4
2016-06-25T12:20:31.112Z,29.45
2016-06-25T12:21:29.912Z,29.42
2016-06-25T12:22:30.514Z,29.45
2016-06-25T12:23:30.530Z,29.51
2016-06-25T12:24:29.938Z,29.47
2016-06-25T12:25:30.552Z,29.58
2016-06-25T12:26:31.157Z,29.51
2016-06-25T12:27:30.578Z,29.47
2016-06-25T12:28:30.583Z,29.55
2016-06-25T12:29:30.597Z,29.58
2016-06-25T12:30:30.613Z,29.52
2016-06-25T12:31:31.220Z,29.51
2016-06-25T12:32:30.638Z,29.58
2016-06-25T12:33:30.647Z,29.48
2016-06-25T12:34:31.294Z,29.5
2016-06-25T12:35:31.281Z,29.5
2016-06-25T12:36:31.289Z,29.52
2016-06-25T12:37:30.705Z,29.52
2016-06-25T12:38:30.112Z,29.51
2016-06-25T12:39:30.733Z,29.47
2016-06-25T12:40:30.739Z,29.5
2016-06-25T12:41:31.347Z,29.55
2016-06-25T12:42:30.153Z,29.54
2016-06-25T12:43:30.190Z,29.52
2016-06-25T12:44:30.789Z,29.52
2016-06-25T12:45:30.182Z,29.57
2016-06-25T12:46:30.216Z,29.6
2016-06-25T12:47:30.267Z,29.65
2016-06-25T12:48:30.837Z,29.57
2016-06-25T12:49:30.248Z,29.6
2016-06-25T12:50:31.459Z,29.61
2016-06-25T12:51:30.866Z,29.7
2016-06-25T12:52:30.277Z,29.67
2016-06-25T12:53:31.506Z,29.58
2016-06-25T12:54:30.899Z,29.67